ADDS METAR Data INFO
IDs: Format: Raw Decoded Include TAF

Data at: 0900 UTC 20 Oct 2017

K79J 200856Z AUTO 00000KT 10SM CLR 16/13 A3019 RMK AO2 SLP220 T01560128 58001
K79J 200756Z AUTO 08004KT 10SM CLR 16/13 A3019 RMK AO2 SLP220 T01610133
K79J 200656Z AUTO 09005KT 10SM CLR 17/14 A3020 RMK AO2 SLP221 T01670139
K79J 200556Z AUTO 07003KT 10SM CLR 17/14 A3020 RMK AO2 SLP221 T01720139 10217 20172 58004
K79J 200456Z AUTO 07003KT 10SM CLR 17/14 A3020 RMK AO2 SLP223 T01720144 402890128
K79J 200356Z AUTO 00000KT 10SM CLR 18/14 A3021 RMK AO2 SLP224 T01830144
K79J 200256Z AUTO 03003KT 10SM CLR 19/15 A3021 RMK AO2 SLP225 T01940150 53011
K79J 200156Z AUTO 04003KT 10SM CLR 20/15 A3019 RMK AO2 SLP221 T02000150
K79J 200056Z AUTO 04004KT 10SM CLR 22/15 A3018 RMK AO2 SLP218 T02170150
K79J 192356Z AUTO 04003KT 10SM CLR 21/15 A3017 RMK AO2 SLP215 T02110150 10289 20211 53006
K79J 192256Z AUTO 04003KT 10SM CLR 24/15 A3016 RMK AO2 SLP210 T02440150
K79J 192156Z AUTO 05005KT 10SM CLR 27/13 A3016 RMK AO2 SLP207 T02720133
K79J 192056Z AUTO 05005KT 10SM CLR 28/12 A3016 RMK AO2 SLP208 T02830122 56022
K79J 191956Z AUTO 08007KT 10SM CLR 29/13 A3017 RMK AO2 SLP211 T02890128
K79J 191856Z AUTO 07007KT 10SM CLR 28/13 A3019 RMK AO2 SLP219 T02780128
K79J 191756Z AUTO 36008KT 10SM CLR 27/13 A3022 RMK AO2 SLP230 T02720133 10272 20128 58015
K79J 191656Z AUTO 08009G16KT 10SM CLR 26/14 A3025 RMK AO2 SLP238 T02610139
K79J 191556Z AUTO 09008KT 10SM CLR 24/14 A3026 RMK AO2 SLP245 T02440139
K79J 191456Z AUTO 08007KT 10SM CLR 22/13 A3027 RMK AO2 SLP246 T02220133 53019
K79J 191356Z AUTO 09007KT 10SM CLR 19/12 A3025 RMK AO2 SLP242 T01890122
K79J 191256Z AUTO 07005KT 10SM CLR 16/10 A3022 RMK AO2 SLP231 T01560100
K79J 191156Z AUTO 00000KT 10SM CLR 13/09 A3021 RMK AO2 SLP227 T01280089 10144 20128 51010
K79J 191056Z AUTO 10003KT 10SM CLR 13/08 A3021 RMK AO2 SLP225 T01280083
K79J 190956Z AUTO 06003KT 10SM CLR 14/08 A3019 RMK AO2 SLP220 T01390078
K79J 190856Z AUTO 08003KT 10SM CLR 14/08 A3018 RMK AO2 SLP217 T01390083 56009
K79J 190756Z AUTO 09004KT 10SM CLR 14/08 A3018 RMK AO2 SLP217 T01390083
K79J 190656Z AUTO 09004KT 10SM CLR 14/08 A3019 RMK AO2 SLP220 T01440083
K79J 190556Z AUTO 10003KT 10SM CLR 14/09 A3021 RMK AO2 SLP226 T01440089 10200 20144 58006
K79J 190456Z AUTO 09003KT 10SM CLR 15/09 A3022 RMK AO2 SLP229 T01500094 402610100
K79J 190356Z AUTO 00000KT 10SM CLR 15/10 A3023 RMK AO2 SLP232 T01500100
K79J 190256Z AUTO 07003KT 10SM CLR 16/11 A3022 RMK AO2 SLP232 T01610111 51009
K79J 190156Z AUTO 07005KT 10SM CLR 18/12 A3022 RMK AO2 SLP229 T01780117
K79J 190056Z AUTO 05005KT 10SM CLR 19/13 A3021 RMK AO2 SLP227 T01890128
K79J 182356Z AUTO 03003KT 10SM CLR 20/13 A3020 RMK AO2 SLP223 T02000128 10261 20194 53007
K79J 182256Z AUTO 05004KT 10SM CLR 23/13 A3018 RMK AO2 SLP215 T02280128
K79J 182156Z AUTO 07005KT 10SM CLR 25/12 A3017 RMK AO2 SLP214 T02500122